sensor_id;sensor_type;location;lat;lon;timestamp;pressure;altitude;pressure_sealevel;temperature;humidity
21290;BME280;10804;48.988;2.408;2023-12-29T00:02:26;100839.28;;;11.97;69.03
21290;BME280;10804;48.988;2.408;2023-12-29T00:04:54;100835.81;;;11.97;69.04
21290;BME280;10804;48.988;2.408;2023-12-29T00:07:22;100833.25;;;11.95;69.22
21290;BME280;10804;48.988;2.408;2023-12-29T00:09:50;100830.63;;;11.95;69.09
21290;BME280;10804;48.988;2.408;2023-12-29T00:12:17;100846.31;;;11.95;69.17
21290;BME280;10804;48.988;2.408;2023-12-29T00:14:44;100848.09;;;11.95;69.17
21290;BME280;10804;48.988;2.408;2023-12-29T00:17:12;100842.00;;;11.94;69.34
21290;BME280;10804;48.988;2.408;2023-12-29T00:19:39;100851.66;;;11.92;69.21
21290;BME280;10804;48.988;2.408;2023-12-29T00:22:06;100856.88;;;11.92;69.23
21290;BME280;10804;48.988;2.408;2023-12-29T00:24:35;100859.41;;;11.94;69.16
21290;BME280;10804;48.988;2.408;2023-12-29T00:27:03;100854.25;;;11.92;69.13
21290;BME280;10804;48.988;2.408;2023-12-29T00:29:30;100862.91;;;11.94;69.25
21290;BME280;10804;48.988;2.408;2023-12-29T00:31:59;100854.16;;;11.95;69.12
21290;BME280;10804;48.988;2.408;2023-12-29T00:34:26;100850.75;;;11.93;69.25
21290;BME280;10804;48.988;2.408;2023-12-29T00:36:53;100846.34;;;11.94;69.08
21290;BME280;10804;48.988;2.408;2023-12-29T00:39:22;100842.00;;;11.94;69.28
21290;BME280;10804;48.988;2.408;2023-12-29T00:41:56;100842.00;;;11.94;69.13
21290;BME280;10804;48.988;2.408;2023-12-29T00:44:23;100834.16;;;11.94;69.26
21290;BME280;10804;48.988;2.408;2023-12-29T00:46:51;100827.19;;;11.95;69.17
21290;BME280;10804;48.988;2.408;2023-12-29T00:49:18;100822.78;;;11.95;69.09
21290;BME280;10804;48.988;2.408;2023-12-29T00:51:47;100830.63;;;11.95;69.18
21290;BME280;10804;48.988;2.408;2023-12-29T00:54:14;100825.41;;;11.95;69.20
21290;BME280;10804;48.988;2.408;2023-12-29T00:56:41;100824.50;;;11.96;69.21
21290;BME280;10804;48.988;2.408;2023-12-29T00:59:10;100834.06;;;11.97;69.24
21290;BME280;10804;48.988;2.408;2023-12-29T01:01:39;100835.81;;;11.97;69.29
21290;BME280;10804;48.988;2.408;2023-12-29T01:04:07;100830.59;;;11.97;69.11
21290;BME280;10804;48.988;2.408;2023-12-29T01:06:35;100827.06;;;11.98;68.97
21290;BME280;10804;48.988;2.408;2023-12-29T01:09:02;100830.59;;;11.97;69.26
21290;BME280;10804;48.988;2.408;2023-12-29T01:11:29;100827.06;;;11.98;69.22
21290;BME280;10804;48.988;2.408;2023-12-29T01:13:57;100824.44;;;11.99;69.17
21290;BME280;10804;48.988;2.408;2023-12-29T01:16:25;100820.94;;;11.99;69.02
21290;BME280;10804;48.988;2.408;2023-12-29T01:18:53;100817.50;;;11.98;69.09
21290;BME280;10804;48.988;2.408;2023-12-29T01:21:21;100813.97;;;11.99;69.23
21290;BME280;10804;48.988;2.408;2023-12-29T01:23:49;100817.50;;;11.98;69.18
21290;BME280;10804;48.988;2.408;2023-12-29T01:26:17;100818.34;;;11.99;69.27
21290;BME280;10804;48.988;2.408;2023-12-29T01:28:44;100813.97;;;11.99;69.25
21290;BME280;10804;48.988;2.408;2023-12-29T01:31:11;100814.81;;;12.00;69.12
21290;BME280;10804;48.988;2.408;2023-12-29T01:33:41;100816.50;;;12.01;69.10
21290;BME280;10804;48.988;2.408;2023-12-29T01:36:08;100808.75;;;11.99;69.09
21290;BME280;10804;48.988;2.408;2023-12-29T01:38:35;100806.13;;;11.99;69.17
21290;BME280;10804;48.988;2.408;2023-12-29T01:41:03;100816.59;;;11.99;69.23
21290;BME280;10804;48.988;2.408;2023-12-29T01:43:30;100810.53;;;11.97;69.01
21290;BME280;10804;48.988;2.408;2023-12-29T01:45:58;100823.53;;;12.00;69.02
21290;BME280;10804;48.988;2.408;2023-12-29T01:48:26;100815.69;;;12.00;69.04
21290;BME280;10804;48.988;2.408;2023-12-29T01:50:55;100822.63;;;12.01;69.16
21290;BME280;10804;48.988;2.408;2023-12-29T01:53:23;100821.75;;;12.01;69.18
21290;BME280;10804;48.988;2.408;2023-12-29T01:55:52;100818.28;;;12.00;69.16
21290;BME280;10804;48.988;2.408;2023-12-29T01:58:19;100820.00;;;12.01;68.98
21290;BME280;10804;48.988;2.408;2023-12-29T02:00:46;100812.16;;;12.01;69.29
21290;BME280;10804;48.988;2.408;2023-12-29T02:03:15;100806.06;;;12.01;69.00
21290;BME280;10804;48.988;2.408;2023-12-29T02:05:44;100820.00;;;12.01;69.21
21290;BME280;10804;48.988;2.408;2023-12-29T02:08:13;100813.00;;;12.02;69.07
21290;BME280;10804;48.988;2.408;2023-12-29T02:10:41;100815.63;;;12.02;69.02
21290;BME280;10804;48.988;2.408;2023-12-29T02:13:08;100815.63;;;12.02;69.04
21290;BME280;10804;48.988;2.408;2023-12-29T02:15:34;100807.78;;;12.02;69.02
21290;BME280;10804;48.988;2.408;2023-12-29T02:18:06;100817.34;;;12.03;69.24
21290;BME280;10804;48.988;2.408;2023-12-29T02:20:34;100813.88;;;12.02;69.02
21290;BME280;10804;48.988;2.408;2023-12-29T02:23:03;100819.09;;;12.02;69.19
21290;BME280;10804;48.988;2.408;2023-12-29T02:25:32;100816.47;;;12.02;69.02
21290;BME280;10804;48.988;2.408;2023-12-29T02:28:04;100822.59;;;12.03;68.97
21290;BME280;10804;48.988;2.408;2023-12-29T02:30:38;100812.13;;;12.03;69.00
21290;BME280;10804;48.988;2.408;2023-12-29T02:33:15;100815.56;;;12.03;69.11
21290;BME280;10804;48.988;2.408;2023-12-29T02:35:45;100811.25;;;12.02;69.04
21290;BME280;10804;48.988;2.408;2023-12-29T02:38:15;100806.03;;;12.02;68.86
21290;BME280;10804;48.988;2.408;2023-12-29T02:40:44;100799.00;;;12.04;69.15
21290;BME280;10804;48.988;2.408;2023-12-29T02:43:11;100789.44;;;12.03;68.99
21290;BME280;10804;48.988;2.408;2023-12-29T02:45:38;100793.81;;;12.03;68.90
21290;BME280;10804;48.988;2.408;2023-12-29T02:48:06;100781.59;;;12.03;69.06
21290;BME280;10804;48.988;2.408;2023-12-29T02:50:34;100786.00;;;12.03;68.92
21290;BME280;10804;48.988;2.408;2023-12-29T02:53:01;100788.53;;;12.04;69.02
21290;BME280;10804;48.988;2.408;2023-12-29T02:55:30;100784.22;;;12.03;68.95
21290;BME280;10804;48.988;2.408;2023-12-29T02:57:59;100774.63;;;12.04;69.02
21290;BME280;10804;48.988;2.408;2023-12-29T03:00:26;100778.97;;;12.03;69.04
21290;BME280;10804;48.988;2.408;2023-12-29T03:02:53;100778.16;;;12.03;68.94
21290;BME280;10804;48.988;2.408;2023-12-29T03:05:21;100774.63;;;12.04;68.92
21290;BME280;10804;48.988;2.408;2023-12-29T03:07:48;100766.81;;;12.02;69.00
21290;BME280;10804;48.988;2.408;2023-12-29T03:10:16;100768.56;;;12.02;68.94
21290;BME280;10804;48.988;2.408;2023-12-29T03:12:43;100769.44;;;12.02;68.97
21290;BME280;10804;48.988;2.408;2023-12-29T03:15:12;100765.13;;;12.01;68.84
21290;BME280;10804;48.988;2.408;2023-12-29T03:17:39;100770.34;;;12.01;68.88
21290;BME280;10804;48.988;2.408;2023-12-29T03:20:08;100760.00;;;11.98;68.87
21290;BME280;10804;48.988;2.408;2023-12-29T03:22:35;100759.00;;;12.01;68.78
21290;BME280;10804;48.988;2.408;2023-12-29T03:25:03;100767.72;;;12.01;69.07
21290;BME280;10804;48.988;2.408;2023-12-29T03:27:30;100750.38;;;11.99;69.21
21290;BME280;10804;48.988;2.408;2023-12-29T03:29:58;100768.63;;;12.00;68.78
21290;BME280;10804;48.988;2.408;2023-12-29T03:32:26;100760.78;;;12.00;69.12
21290;BME280;10804;48.988;2.408;2023-12-29T03:34:54;100752.03;;;12.01;69.05
21290;BME280;10804;48.988;2.408;2023-12-29T03:37:21;100749.44;;;12.01;69.06
21290;BME280;10804;48.988;2.408;2023-12-29T03:39:48;100746.81;;;12.01;68.98
21290;BME280;10804;48.988;2.408;2023-12-29T03:42:15;100756.38;;;12.02;68.82
21290;BME280;10804;48.988;2.408;2023-12-29T03:44:43;100757.28;;;12.01;68.89
21290;BME280;10804;48.988;2.408;2023-12-29T03:47:10;100761.59;;;12.02;68.96
21290;BME280;10804;48.988;2.408;2023-12-29T03:49:39;100752.03;;;12.01;68.92
21290;BME280;10804;48.988;2.408;2023-12-29T03:52:06;100756.38;;;12.02;69.05
21290;BME280;10804;48.988;2.408;2023-12-29T03:54:33;100751.13;;;12.02;68.84
21290;BME280;10804;48.988;2.408;2023-12-29T03:57:01;100750.28;;;12.02;68.96
21290;BME280;10804;48.988;2.408;2023-12-29T03:59:28;100746.78;;;12.03;68.92
21290;BME280;10804;48.988;2.408;2023-12-29T04:01:56;100745.88;;;12.04;68.96
21290;BME280;10804;48.988;2.408;2023-12-29T04:04:23;100740.66;;;12.04;69.08
21290;BME280;10804;48.988;2.408;2023-12-29T04:06:52;100739.78;;;12.03;68.92
21290;BME280;10804;48.988;2.408;2023-12-29T04:09:19;100744.09;;;12.04;68.83
21290;BME280;10804;48.988;2.408;2023-12-29T04:11:46;100741.47;;;12.04;69.12
21290;BME280;10804;48.988;2.408;2023-12-29T04:14:14;100743.19;;;12.05;68.76
21290;BME280;10804;48.988;2.408;2023-12-29T04:16:43;100732.81;;;12.04;69.07
21290;BME280;10804;48.988;2.408;2023-12-29T04:19:10;100735.34;;;12.05;69.11
21290;BME280;10804;48.988;2.408;2023-12-29T04:21:37;100735.34;;;12.05;69.20
21290;BME280;10804;48.988;2.408;2023-12-29T04:24:06;100736.22;;;12.06;69.06
21290;BME280;10804;48.988;2.408;2023-12-29T04:26:35;100731.84;;;12.06;68.91
21290;BME280;10804;48.988;2.408;2023-12-29T04:29:02;100727.50;;;12.05;69.03
21290;BME280;10804;48.988;2.408;2023-12-29T04:31:30;100721.41;;;12.06;68.90
21290;BME280;10804;48.988;2.408;2023-12-29T04:33:57;100731.84;;;12.06;69.02
21290;BME280;10804;48.988;2.408;2023-12-29T04:36:26;100727.47;;;12.07;68.91
21290;BME280;10804;48.988;2.408;2023-12-29T04:38:54;100730.06;;;12.07;69.11
21290;BME280;10804;48.988;2.408;2023-12-29T04:41:23;100729.16;;;12.08;69.07
21290;BME280;10804;48.988;2.408;2023-12-29T04:43:51;100728.34;;;12.07;68.92
21290;BME280;10804;48.988;2.408;2023-12-29T04:46:18;100727.47;;;12.07;69.04
21290;BME280;10804;48.988;2.408;2023-12-29T04:48:45;100726.56;;;12.08;69.09
21290;BME280;10804;48.988;2.408;2023-12-29T04:51:13;100735.28;;;12.08;68.98
21290;BME280;10804;48.988;2.408;2023-12-29T04:53:40;100730.03;;;12.08;69.01
21290;BME280;10804;48.988;2.408;2023-12-29T04:56:07;100723.94;;;12.08;69.07
21290;BME280;10804;48.988;2.408;2023-12-29T04:58:38;100719.59;;;12.08;68.80
21290;BME280;10804;48.988;2.408;2023-12-29T05:01:05;100715.19;;;12.09;68.97
21290;BME280;10804;48.988;2.408;2023-12-29T05:03:34;100719.59;;;12.08;69.06
21290;BME280;10804;48.988;2.408;2023-12-29T05:06:01;100719.59;;;12.08;68.77
21290;BME280;10804;48.988;2.408;2023-12-29T05:08:29;100715.19;;;12.09;68.87
21290;BME280;10804;48.988;2.408;2023-12-29T05:10:56;100711.75;;;12.08;69.05
21290;BME280;10804;48.988;2.408;2023-12-29T05:13:23;100709.97;;;12.09;69.04
21290;BME280;10804;48.988;2.408;2023-12-29T05:15:52;100718.69;;;12.09;69.07
21290;BME280;10804;48.988;2.408;2023-12-29T05:18:19;100716.94;;;12.10;68.98
21290;BME280;10804;48.988;2.408;2023-12-29T05:20:46;100723.91;;;12.09;69.07
21290;BME280;10804;48.988;2.408;2023-12-29T05:23:14;100721.28;;;12.09;68.86
21290;BME280;10804;48.988;2.408;2023-12-29T05:25:41;100730.00;;;12.10;68.82
21290;BME280;10804;48.988;2.408;2023-12-29T05:28:09;100733.44;;;12.10;69.03
21290;BME280;10804;48.988;2.408;2023-12-29T05:30:36;100733.44;;;12.10;68.75
21290;BME280;10804;48.988;2.408;2023-12-29T05:33:05;100737.84;;;12.10;68.75
21290;BME280;10804;48.988;2.408;2023-12-29T05:35:32;100746.53;;;12.10;69.03
21290;BME280;10804;48.988;2.408;2023-12-29T05:37:59;100730.84;;;12.10;69.11
21290;BME280;10804;48.988;2.408;2023-12-29T05:40:27;100733.50;;;12.09;68.85
21290;BME280;10804;48.988;2.408;2023-12-29T05:42:54;100738.69;;;12.10;69.10
21290;BME280;10804;48.988;2.408;2023-12-29T05:45:22;100743.00;;;12.11;68.92
21290;BME280;10804;48.988;2.408;2023-12-29T05:47:49;100743.00;;;12.11;69.01
21290;BME280;10804;48.988;2.408;2023-12-29T05:50:18;100738.69;;;12.10;68.99
21290;BME280;10804;48.988;2.408;2023-12-29T05:52:45;100735.16;;;12.11;69.04
21290;BME280;10804;48.988;2.408;2023-12-29T05:55:15;100731.63;;;12.12;68.91
21290;BME280;10804;48.988;2.408;2023-12-29T05:57:43;100736.03;;;12.12;68.89
21290;BME280;10804;48.988;2.408;2023-12-29T06:00:12;100737.78;;;12.11;68.96
21290;BME280;10804;48.988;2.408;2023-12-29T06:02:40;100730.03;;;12.08;68.93
21290;BME280;10804;48.988;2.408;2023-12-29T06:05:10;100720.34;;;12.12;69.01
21290;BME280;10804;48.988;2.408;2023-12-29T06:07:39;100735.16;;;12.11;69.01
21290;BME280;10804;48.988;2.408;2023-12-29T06:10:08;100725.56;;;12.12;68.88
21290;BME280;10804;48.988;2.408;2023-12-29T06:12:35;100736.88;;;12.12;69.00
21290;BME280;10804;48.988;2.408;2023-12-29T06:15:03;100746.41;;;12.13;68.88
21290;BME280;10804;48.988;2.408;2023-12-29T06:17:31;100742.09;;;12.12;68.87
21290;BME280;10804;48.988;2.408;2023-12-29T06:19:58;100738.69;;;12.10;68.77
21290;BME280;10804;48.988;2.408;2023-12-29T06:22:27;100749.03;;;12.13;69.09
21290;BME280;10804;48.988;2.408;2023-12-29T06:24:56;100758.66;;;12.13;68.98
21290;BME280;10804;48.988;2.408;2023-12-29T06:27:24;100749.03;;;12.13;68.79
21290;BME280;10804;48.988;2.408;2023-12-29T06:29:52;100749.03;;;12.13;68.99
21290;BME280;10804;48.988;2.408;2023-12-29T06:32:19;100737.69;;;12.14;68.88
21290;BME280;10804;48.988;2.408;2023-12-29T06:34:47;100740.31;;;12.14;68.86
21290;BME280;10804;48.988;2.408;2023-12-29T06:37:14;100744.63;;;12.15;69.08
21290;BME280;10804;48.988;2.408;2023-12-29T06:39:42;100739.44;;;12.14;68.80
21290;BME280;10804;48.988;2.408;2023-12-29T06:42:10;100729.84;;;12.14;68.74
21290;BME280;10804;48.988;2.408;2023-12-29T06:44:38;100735.09;;;12.14;69.00
21290;BME280;10804;48.988;2.408;2023-12-29T06:47:05;100726.31;;;12.15;69.09
21290;BME280;10804;48.988;2.408;2023-12-29T06:49:34;100719.41;;;12.14;68.86
21290;BME280;10804;48.988;2.408;2023-12-29T06:52:01;100722.88;;;12.13;69.18
21290;BME280;10804;48.988;2.408;2023-12-29T06:54:29;100725.47;;;12.15;68.82
21290;BME280;10804;48.988;2.408;2023-12-29T06:56:57;100731.56;;;12.15;69.07
21290;BME280;10804;48.988;2.408;2023-12-29T06:59:26;100731.56;;;12.15;69.10
21290;BME280;10804;48.988;2.408;2023-12-29T07:01:53;100729.84;;;12.14;68.86
21290;BME280;10804;48.988;2.408;2023-12-29T07:04:21;100736.78;;;12.15;69.11
21290;BME280;10804;48.988;2.408;2023-12-29T07:06:48;100728.94;;;12.15;68.79
21290;BME280;10804;48.988;2.408;2023-12-29T07:09:15;100723.72;;;12.15;68.83
21290;BME280;10804;48.988;2.408;2023-12-29T07:11:47;100720.28;;;12.13;68.96
21290;BME280;10804;48.988;2.408;2023-12-29T07:14:14;100717.56;;;12.16;69.04
21290;BME280;10804;48.988;2.408;2023-12-29T07:16:43;100717.56;;;12.16;68.85
21290;BME280;10804;48.988;2.408;2023-12-29T07:19:11;100718.41;;;12.17;69.06
21290;BME280;10804;48.988;2.408;2023-12-29T07:21:38;100717.56;;;12.16;69.05
21290;BME280;10804;48.988;2.408;2023-12-29T07:24:06;100704.53;;;12.15;68.99
21290;BME280;10804;48.988;2.408;2023-12-29T07:26:33;100728.03;;;12.16;68.85
21290;BME280;10804;48.988;2.408;2023-12-29T07:29:01;100722.81;;;12.16;68.90
21290;BME280;10804;48.988;2.408;2023-12-29T07:31:28;100721.91;;;12.17;69.11
21290;BME280;10804;48.988;2.408;2023-12-29T07:33:59;100711.47;;;12.16;68.81
21290;BME280;10804;48.988;2.408;2023-12-29T07:36:26;100723.72;;;12.15;68.88
21290;BME280;10804;48.988;2.408;2023-12-29T07:38:54;100707.13;;;12.16;69.10
21290;BME280;10804;48.988;2.408;2023-12-29T07:41:21;100711.47;;;12.16;68.96
21290;BME280;10804;48.988;2.408;2023-12-29T07:43:49;100721.94;;;12.16;68.87
21290;BME280;10804;48.988;2.408;2023-12-29T07:46:23;100718.50;;;12.15;68.93
21290;BME280;10804;48.988;2.408;2023-12-29T07:48:51;100722.81;;;12.16;68.95
21290;BME280;10804;48.988;2.408;2023-12-29T07:51:20;100735.00;;;12.16;68.74
21290;BME280;10804;48.988;2.408;2023-12-29T07:53:48;100730.66;;;12.16;68.95
21290;BME280;10804;48.988;2.408;2023-12-29T07:56:15;100730.66;;;12.16;68.83
21290;BME280;10804;48.988;2.408;2023-12-29T07:58:43;100723.72;;;12.15;68.82
21290;BME280;10804;48.988;2.408;2023-12-29T08:01:10;100731.56;;;12.15;68.76
21290;BME280;10804;48.988;2.408;2023-12-29T08:03:37;100725.47;;;12.15;68.91
21290;BME280;10804;48.988;2.408;2023-12-29T08:06:05;100719.41;;;12.14;68.97
21290;BME280;10804;48.988;2.408;2023-12-29T08:08:33;100722.00;;;12.14;69.00
21290;BME280;10804;48.988;2.408;2023-12-29T08:11:01;100721.94;;;12.16;68.72
21290;BME280;10804;48.988;2.408;2023-12-29T08:13:28;100729.84;;;12.14;68.96
21290;BME280;10804;48.988;2.408;2023-12-29T08:15:56;100724.63;;;12.14;68.94
21290;BME280;10804;48.988;2.408;2023-12-29T08:18:23;100729.84;;;12.14;68.98
21290;BME280;10804;48.988;2.408;2023-12-29T08:20:50;100734.25;;;12.12;68.88
21290;BME280;10804;48.988;2.408;2023-12-29T08:23:18;100729.03;;;12.12;68.94
21290;BME280;10804;48.988;2.408;2023-12-29T08:25:46;100733.34;;;12.13;69.01
21290;BME280;10804;48.988;2.408;2023-12-29T08:28:13;100747.28;;;12.14;68.94
21290;BME280;10804;48.988;2.408;2023-12-29T08:30:41;100742.09;;;12.12;68.76
21290;BME280;10804;48.988;2.408;2023-12-29T08:33:11;100742.97;;;12.13;68.63
21290;BME280;10804;48.988;2.408;2023-12-29T08:35:39;100738.56;;;12.13;68.77
21290;BME280;10804;48.988;2.408;2023-12-29T08:38:06;100748.22;;;12.11;68.97
21290;BME280;10804;48.988;2.408;2023-12-29T08:40:35;100743.78;;;12.13;68.95
21290;BME280;10804;48.988;2.408;2023-12-29T08:43:04;100748.19;;;12.13;69.04
21290;BME280;10804;48.988;2.408;2023-12-29T08:45:31;100741.25;;;12.12;69.02
21290;BME280;10804;48.988;2.408;2023-12-29T08:47:59;100753.41;;;12.13;68.97
21290;BME280;10804;48.988;2.408;2023-12-29T08:50:26;100758.66;;;12.13;68.99
21290;BME280;10804;48.988;2.408;2023-12-29T08:52:53;100759.47;;;12.13;68.79
21290;BME280;10804;48.988;2.408;2023-12-29T08:55:21;100760.34;;;12.14;68.79
21290;BME280;10804;48.988;2.408;2023-12-29T08:57:48;100754.25;;;12.13;69.01
21290;BME280;10804;48.988;2.408;2023-12-29T09:00:17;100753.38;;;12.14;69.11
21290;BME280;10804;48.988;2.408;2023-12-29T09:02:45;100761.22;;;12.14;69.12
21290;BME280;10804;48.988;2.408;2023-12-29T09:05:12;100764.63;;;12.16;68.90
21290;BME280;10804;48.988;2.408;2023-12-29T09:07:40;100760.25;;;12.17;68.87
21290;BME280;10804;48.988;2.408;2023-12-29T09:10:07;100762.84;;;12.17;69.02
21290;BME280;10804;48.988;2.408;2023-12-29T09:12:39;100760.22;;;12.18;68.92
21290;BME280;10804;48.988;2.408;2023-12-29T09:15:07;100760.22;;;12.18;68.84
21290;BME280;10804;48.988;2.408;2023-12-29T09:17:36;100759.31;;;12.19;68.88
21290;BME280;10804;48.988;2.408;2023-12-29T09:20:03;100756.66;;;12.21;69.02
21290;BME280;10804;48.988;2.408;2023-12-29T09:22:32;100765.28;;;12.23;68.88
21290;BME280;10804;48.988;2.408;2023-12-29T09:24:59;100766.16;;;12.23;68.89
21290;BME280;10804;48.988;2.408;2023-12-29T09:27:26;100761.75;;;12.24;69.05
21290;BME280;10804;48.988;2.408;2023-12-29T09:29:54;100776.50;;;12.26;68.92
21290;BME280;10804;48.988;2.408;2023-12-29T09:32:21;100760.94;;;12.23;69.13
21290;BME280;10804;48.988;2.408;2023-12-29T09:34:50;100772.06;;;12.28;68.90
21290;BME280;10804;48.988;2.408;2023-12-29T09:37:17;100765.97;;;12.29;68.88
21290;BME280;10804;48.988;2.408;2023-12-29T09:39:45;100773.75;;;12.31;69.00
21290;BME280;10804;48.988;2.408;2023-12-29T09:42:16;100771.09;;;12.32;69.07
21290;BME280;10804;48.988;2.408;2023-12-29T09:44:49;100766.72;;;12.33;68.90
21290;BME280;10804;48.988;2.408;2023-12-29T09:47:20;100770.97;;;12.35;68.83
21290;BME280;10804;48.988;2.408;2023-12-29T09:49:51;100770.97;;;12.35;68.93
21290;BME280;10804;48.988;2.408;2023-12-29T09:52:20;100764.88;;;12.36;69.25
21290;BME280;10804;48.988;2.408;2023-12-29T09:54:49;100770.91;;;12.38;69.12
21290;BME280;10804;48.988;2.408;2023-12-29T09:57:18;100769.06;;;12.40;68.93
21290;BME280;10804;48.988;2.408;2023-12-29T09:59:48;100768.16;;;12.41;69.18
21290;BME280;10804;48.988;2.408;2023-12-29T10:02:17;100764.66;;;12.42;68.93
21290;BME280;10804;48.988;2.408;2023-12-29T10:04:44;100757.63;;;12.44;68.96
21290;BME280;10804;48.988;2.408;2023-12-29T10:07:20;100762.75;;;12.47;68.79
21290;BME280;10804;48.988;2.408;2023-12-29T10:09:52;100768.88;;;12.46;69.07
21290;BME280;10804;48.988;2.408;2023-12-29T10:12:22;100775.72;;;12.50;69.10
21290;BME280;10804;48.988;2.408;2023-12-29T10:14:57;100784.44;;;12.51;69.15
21290;BME280;10804;48.988;2.408;2023-12-29T10:17:37;100784.38;;;12.52;69.06
21290;BME280;10804;48.988;2.408;2023-12-29T10:20:15;100785.19;;;12.54;69.13
21290;BME280;10804;48.988;2.408;2023-12-29T10:22:51;100773.78;;;12.57;69.04
21290;BME280;10804;48.988;2.408;2023-12-29T10:25:23;100785.91;;;12.59;69.06
21290;BME280;10804;48.988;2.408;2023-12-29T10:27:51;100787.53;;;12.62;69.14
21290;BME280;10804;48.988;2.408;2023-12-29T10:30:19;100783.13;;;12.64;68.79
21290;BME280;10804;48.988;2.408;2023-12-29T10:32:49;100788.38;;;12.64;68.82
21290;BME280;10804;48.988;2.408;2023-12-29T10:35:17;100778.72;;;12.64;68.80
21290;BME280;10804;48.988;2.408;2023-12-29T10:37:44;100778.66;;;12.67;69.04
21290;BME280;10804;48.988;2.408;2023-12-29T10:40:18;100778.53;;;12.70;68.91
21290;BME280;10804;48.988;2.408;2023-12-29T10:42:52;100768.06;;;12.70;69.02
21290;BME280;10804;48.988;2.408;2023-12-29T10:45:20;100769.78;;;12.71;68.75
21290;BME280;10804;48.988;2.408;2023-12-29T10:47:47;100762.72;;;12.73;68.79
21290;BME280;10804;48.988;2.408;2023-12-29T10:50:15;100760.97;;;12.74;68.65
21290;BME280;10804;48.988;2.408;2023-12-29T10:52:42;100756.53;;;12.76;68.61
21290;BME280;10804;48.988;2.408;2023-12-29T10:55:11;100757.50;;;12.73;69.04
21290;BME280;10804;48.988;2.408;2023-12-29T10:57:40;100755.59;;;12.78;68.74
21290;BME280;10804;48.988;2.408;2023-12-29T11:00:08;100745.16;;;12.77;68.94
21290;BME280;10804;48.988;2.408;2023-12-29T11:02:38;100745.91;;;12.80;68.55
21290;BME280;10804;48.988;2.408;2023-12-29T11:05:07;100742.38;;;12.81;68.64
21290;BME280;10804;48.988;2.408;2023-12-29T11:07:36;100737.13;;;12.81;68.91
21290;BME280;10804;48.988;2.408;2023-12-29T11:10:06;100734.47;;;12.83;68.48
21290;BME280;10804;48.988;2.408;2023-12-29T11:12:35;100736.16;;;12.85;68.59
21290;BME280;10804;48.988;2.408;2023-12-29T11:15:05;100734.44;;;12.84;68.57
21290;BME280;10804;48.988;2.408;2023-12-29T11:17:34;100747.41;;;12.87;68.60
21290;BME280;10804;48.988;2.408;2023-12-29T11:20:03;100745.66;;;12.88;68.58
21290;BME280;10804;48.988;2.408;2023-12-29T11:22:32;100738.59;;;12.90;68.57
21290;BME280;10804;48.988;2.408;2023-12-29T11:24:59;100742.91;;;12.91;68.38
21290;BME280;10804;48.988;2.408;2023-12-29T11:27:28;100740.31;;;12.91;68.53
21290;BME280;10804;48.988;2.408;2023-12-29T11:29:57;100737.66;;;12.92;68.84
21290;BME280;10804;48.988;2.408;2023-12-29T11:32:32;100733.19;;;12.96;68.43
21290;BME280;10804;48.988;2.408;2023-12-29T11:35:10;100725.25;;;12.97;68.34
21290;BME280;10804;48.988;2.408;2023-12-29T11:37:51;100727.00;;;12.98;68.47
21290;BME280;10804;48.988;2.408;2023-12-29T11:40:25;100721.75;;;12.98;68.50
21290;BME280;10804;48.988;2.408;2023-12-29T11:42:58;100726.88;;;13.01;68.29
21290;BME280;10804;48.988;2.408;2023-12-29T11:45:29;100725.13;;;13.02;68.36
21290;BME280;10804;48.988;2.408;2023-12-29T11:47:59;100719.81;;;13.03;68.52
21290;BME280;10804;48.988;2.408;2023-12-29T11:50:29;100718.91;;;13.04;68.26
21290;BME280;10804;48.988;2.408;2023-12-29T11:52:58;100713.66;;;13.04;68.37
21290;BME280;10804;48.988;2.408;2023-12-29T11:55:30;100716.25;;;13.06;68.61
21290;BME280;10804;48.988;2.408;2023-12-29T11:57:58;100721.44;;;13.07;68.59
21290;BME280;10804;48.988;2.408;2023-12-29T12:00:42;100718.72;;;13.09;68.16
21290;BME280;10804;48.988;2.408;2023-12-29T12:03:18;100717.03;;;13.08;68.54
21290;BME280;10804;48.988;2.408;2023-12-29T12:05:50;100716.06;;;13.10;68.57
21290;BME280;10804;48.988;2.408;2023-12-29T12:08:28;100717.78;;;13.11;68.26
21290;BME280;10804;48.988;2.408;2023-12-29T12:10:56;100703.75;;;13.12;68.50
21290;BME280;10804;48.988;2.408;2023-12-29T12:13:42;100688.19;;;13.09;68.40
21290;BME280;10804;48.988;2.408;2023-12-29T12:16:10;100700.25;;;13.13;68.39
21290;BME280;10804;48.988;2.408;2023-12-29T12:18:58;100697.56;;;13.15;68.61
21290;BME280;10804;48.988;2.408;2023-12-29T12:21:26;100703.69;;;13.15;68.55
21290;BME280;10804;48.988;2.408;2023-12-29T12:23:54;100695.81;;;13.15;68.22
21290;BME280;10804;48.988;2.408;2023-12-29T12:26:24;100694.91;;;13.16;68.19
21290;BME280;10804;48.988;2.408;2023-12-29T12:28:53;100695.78;;;13.17;68.18
21290;BME280;10804;48.988;2.408;2023-12-29T12:31:20;100694.00;;;13.17;68.16
21290;BME280;10804;48.988;2.408;2023-12-29T12:33:53;100687.84;;;13.18;68.39
21290;BME280;10804;48.988;2.408;2023-12-29T12:36:22;100683.47;;;13.19;68.45
21290;BME280;10804;48.988;2.408;2023-12-29T12:38:51;100686.09;;;13.19;68.48
21290;BME280;10804;48.988;2.408;2023-12-29T12:41:19;100679.19;;;13.16;68.55
21290;BME280;10804;48.988;2.408;2023-12-29T12:43:53;100681.69;;;13.19;68.42
21290;BME280;10804;48.988;2.408;2023-12-29T12:46:23;100676.41;;;13.21;68.23
21290;BME280;10804;48.988;2.408;2023-12-29T12:48:52;100656.31;;;13.21;68.14
21290;BME280;10804;48.988;2.408;2023-12-29T12:51:21;100653.75;;;13.20;68.21
21290;BME280;10804;48.988;2.408;2023-12-29T12:53:49;100663.31;;;13.21;68.54
21290;BME280;10804;48.988;2.408;2023-12-29T12:56:18;100662.44;;;13.20;68.35
21290;BME280;10804;48.988;2.408;2023-12-29T12:58:46;100661.56;;;13.21;68.36